Time;durP1;ratioP1;P1;durP2;ratioP2;P2;SDS_P1;SDS_P2;PMS_P1;PMS_P2;Temp;Humidity;BMP_temperature;BMP_pressure;BME280_temperature;BME280_humidity;BME280_pressure;Samples;Min_cycle;Max_cycle;Signal;HPM_P1;HPM_P2
2023/08/20 00:02:22;;;;;;;;;;;;;;;20.52;84.22;101586.45;108664;1259;60249;-87
2023/08/20 00:04:51;;;;;;;;;;;;;;;20.49;84.28;101582.17;108388;1261;123866;-87
2023/08/20 00:07:18;;;;;;;;;;;;;;;20.47;84.38;101579.70;108516;1261;73931;-87
2023/08/20 00:09:45;;;;;;;;;;;;;;;20.45;84.41;101573.45;108524;1264;67113;-87
2023/08/20 00:12:12;;;;;;;;;;;;;;;20.44;84.39;101577.20;108406;1260;125802;-87
2023/08/20 00:14:52;;;;;;;;;;;;;;;20.42;84.45;101571.50;108680;1259;59834;-87
2023/08/20 00:17:19;;;;;;;;;;;;;;;20.42;84.51;101573.46;108664;1260;123910;-87
2023/08/20 00:19:46;;;;;;;;;;;;;;;20.41;84.49;101572.93;108585;1265;73452;-88
2023/08/20 00:22:13;;;;;;;;;;;;;;;20.39;84.53;101572.76;108641;1260;67464;-87
2023/08/20 00:24:40;;;;;;;;;;;;;;;20.37;84.54;101570.09;108506;1263;124761;-88
2023/08/20 00:27:07;;;;;;;;;;;;;;;20.35;84.62;101570.27;108456;1265;59580;-88
2023/08/20 00:29:34;;;;;;;;;;;;;;;20.34;84.66;101572.05;107637;1260;125845;-87
2023/08/20 00:32:00;;;;;;;;;;;;;;;20.33;84.69;101576.88;107594;1261;75293;-87
2023/08/20 00:34:27;;;;;;;;;;;;;;;20.32;84.71;101577.76;107899;1260;65854;-88
2023/08/20 00:36:54;;;;;;;;;;;;;;;20.32;84.68;101574.73;107699;1261;125994;-87
2023/08/20 00:39:21;;;;;;;;;;;;;;;20.30;84.71;101574.55;107983;1265;60179;-87
2023/08/20 00:41:48;;;;;;;;;;;;;;;20.29;84.84;101577.59;107980;1260;125407;-87
2023/08/20 00:44:15;;;;;;;;;;;;;;;20.27;84.92;101574.39;108032;1265;73326;-87
2023/08/20 00:46:42;;;;;;;;;;;;;;;20.25;84.83;101574.20;108025;1265;125783;-87
2023/08/20 00:49:09;;;;;;;;;;;;;;;20.22;84.96;101573.15;108019;1264;73236;-87
2023/08/20 00:51:35;;;;;;;;;;;;;;;20.19;85.02;101583.65;107818;1260;59577;-87
2023/08/20 00:54:02;;;;;;;;;;;;;;;20.19;85.20;101584.19;107885;1265;125741;-87
2023/08/20 00:56:29;;;;;;;;;;;;;;;20.19;85.19;101584.20;107955;1266;72699;-87
2023/08/20 00:58:56;;;;;;;;;;;;;;;20.19;85.15;101582.41;108237;1261;125977;-88
2023/08/20 01:01:23;;;;;;;;;;;;;;;20.16;85.28;101582.42;108536;1260;72759;-87
2023/08/20 01:03:50;;;;;;;;;;;;;;;20.16;85.34;101580.83;108714;1259;59617;-87
2023/08/20 01:06:20;;;;;;;;;;;;;;;20.14;85.31;101577.80;108608;1263;125418;-87
2023/08/20 01:08:47;;;;;;;;;;;;;;;20.12;85.28;101578.16;108648;1263;75124;-87
2023/08/20 01:11:18;;;;;;;;;;;;;;;20.12;85.26;101579.75;108353;1260;126526;-88
2023/08/20 01:13:45;;;;;;;;;;;;;;;20.10;85.33;101580.13;108545;1260;71386;-88
2023/08/20 01:16:12;;;;;;;;;;;;;;;20.08;85.36;101579.94;108425;1267;60484;-87
2023/08/20 01:18:39;;;;;;;;;;;;;;;20.07;85.39;101582.79;108498;1260;125435;-88
2023/08/20 01:21:11;;;;;;;;;;;;;;;20.04;85.44;101584.04;108631;1260;74750;-88
2023/08/20 01:23:58;;;;;;;;;;;;;;;20.01;85.53;101585.29;108466;1260;125618;-88
2023/08/20 01:26:30;;;;;;;;;;;;;;;19.99;85.57;101584.77;108097;1267;71695;-88
2023/08/20 01:28:57;;;;;;;;;;;;;;;19.98;85.70;101583.16;107957;1267;125437;-88
2023/08/20 01:31:24;;;;;;;;;;;;;;;19.97;85.87;101583.69;107959;1267;59589;-88
2023/08/20 01:33:51;;;;;;;;;;;;;;;19.96;85.82;101584.04;107931;1270;75213;-88
2023/08/20 01:36:18;;;;;;;;;;;;;;;19.97;85.87;101585.46;107828;1268;126337;-89
2023/08/20 01:38:45;;;;;;;;;;;;;;;19.96;85.82;101585.11;107923;1267;71487;-89
2023/08/20 01:41:12;;;;;;;;;;;;;;;19.95;86.01;101585.83;107845;1267;126675;-88
2023/08/20 01:43:39;;;;;;;;;;;;;;;19.94;85.97;101587.96;108044;1267;60536;-88
2023/08/20 01:46:07;;;;;;;;;;;;;;;19.93;85.96;101589.05;107741;1268;73771;-87
2023/08/20 01:48:33;;;;;;;;;;;;;;;19.93;86.04;101590.81;107668;1267;124753;-87
2023/08/20 01:51:00;;;;;;;;;;;;;;;19.93;86.09;101593.68;107911;1267;71771;-88
2023/08/20 01:53:27;;;;;;;;;;;;;;;19.92;86.13;101593.66;107765;1269;125264;-88
2023/08/20 01:55:54;;;;;;;;;;;;;;;19.91;86.22;101593.48;107817;1267;59652;-88
2023/08/20 01:58:21;;;;;;;;;;;;;;;19.91;86.23;101591.52;107971;1269;73843;-88
2023/08/20 02:00:48;;;;;;;;;;;;;;;19.92;86.30;101594.02;107798;1267;124808;-88
2023/08/20 02:03:15;;;;;;;;;;;;;;;19.93;86.28;101592.95;108147;1259;71893;-87
2023/08/20 02:05:42;;;;;;;;;;;;;;;19.91;86.27;101593.30;108723;1260;124444;-87
2023/08/20 02:08:09;;;;;;;;;;;;;;;19.90;86.19;101593.30;108748;1262;59415;-88
2023/08/20 02:10:36;;;;;;;;;;;;;;;19.88;86.32;101591.36;108636;1260;74871;-88
2023/08/20 02:13:04;;;;;;;;;;;;;;;19.87;86.31;101591.17;108566;1260;124345;-87
2023/08/20 02:15:30;;;;;;;;;;;;;;;19.86;86.42;101591.71;108547;1259;73245;-87
2023/08/20 02:17:57;;;;;;;;;;;;;;;19.86;86.51;101591.00;108769;1259;123930;-87
2023/08/20 02:20:24;;;;;;;;;;;;;;;19.86;86.45;101592.25;108850;1263;59405;-88
2023/08/20 02:22:51;;;;;;;;;;;;;;;19.85;86.56;101591.89;108626;1260;126128;-87
2023/08/20 02:25:18;;;;;;;;;;;;;;;19.84;86.59;101592.06;108627;1260;66147;-87
2023/08/20 02:27:45;;;;;;;;;;;;;;;19.83;86.55;101587.98;108690;1260;73234;-87
2023/08/20 02:30:13;;;;;;;;;;;;;;;19.83;86.67;101587.25;108601;1260;125246;-86
2023/08/20 02:32:40;;;;;;;;;;;;;;;19.83;86.68;101588.14;108510;1262;60661;-87
2023/08/20 02:35:07;;;;;;;;;;;;;;;19.83;86.64;101587.97;108383;1260;125789;-87
2023/08/20 02:37:34;;;;;;;;;;;;;;;19.83;86.67;101587.97;108654;1260;67607;-87
2023/08/20 02:40:00;;;;;;;;;;;;;;;19.83;86.66;101588.15;108620;1259;70441;-87
2023/08/20 02:42:27;;;;;;;;;;;;;;;19.81;86.65;101585.83;108436;1261;125444;-88
2023/08/20 02:44:54;;;;;;;;;;;;;;;19.81;86.71;101579.41;108486;1267;59440;-87
2023/08/20 02:47:21;;;;;;;;;;;;;;;19.79;86.86;101581.02;108646;1260;125968;-89
2023/08/20 02:49:48;;;;;;;;;;;;;;;19.79;86.66;101580.14;108843;1265;66896;-89
2023/08/20 02:52:15;;;;;;;;;;;;;;;19.77;86.80;101580.30;108950;1261;71394;-88
2023/08/20 02:54:42;;;;;;;;;;;;;;;19.76;86.80;101576.21;108941;1259;124328;-88
2023/08/20 02:57:16;;;;;;;;;;;;;;;19.76;86.87;101574.44;109018;1265;59129;-88
2023/08/20 02:59:45;;;;;;;;;;;;;;;19.75;86.81;101575.67;108990;1259;123595;-87
2023/08/20 03:02:34;;;;;;;;;;;;;;;19.75;86.79;101575.67;107611;1261;65795;-88
2023/08/20 03:05:01;;;;;;;;;;;;;;;19.73;86.79;101571.04;107333;1259;126269;-87
2023/08/20 03:07:28;;;;;;;;;;;;;;;19.72;86.77;101568.37;107375;1260;61304;-86
2023/08/20 03:09:55;;;;;;;;;;;;;;;19.70;86.92;101564.60;107624;1259;61265;-87
2023/08/20 03:12:22;;;;;;;;;;;;;;;19.68;86.88;101561.04;107652;1258;125858;-86
2023/08/20 03:14:48;;;;;;;;;;;;;;;19.68;86.95;101563.36;107688;1262;67086;-89
2023/08/20 03:17:15;;;;;;;;;;;;;;;19.69;86.97;101562.11;107539;1261;125119;-86
2023/08/20 03:19:53;;;;;;;;;;;;;;;19.67;86.92;101562.46;107652;1260;59620;-89
2023/08/20 03:22:20;;;;;;;;;;;;;;;19.65;87.00;101567.45;107912;1261;61212;-88
2023/08/20 03:24:47;;;;;;;;;;;;;;;19.64;87.09;101565.66;107928;1263;125441;-86
2023/08/20 03:27:14;;;;;;;;;;;;;;;19.66;87.17;101566.02;108031;1259;67640;-86
2023/08/20 03:29:58;;;;;;;;;;;;;;;19.66;87.08;101568.52;107780;1259;124810;-88
2023/08/20 03:35:49;;;;;;;;;;;;;;;19.68;87.03;101570.12;107229;1261;124973;-89
2023/08/20 03:41:45;;;;;;;;;;;;;;;19.72;87.10;101578.15;107350;1262;125471;-90
2023/08/20 03:44:13;;;;;;;;;;;;;;;19.74;87.08;101577.45;106997;1261;72716;-89
2023/08/20 03:46:55;;;;;;;;;;;;;;;19.78;87.24;101579.05;106870;1267;125399;-88
2023/08/20 03:52:46;;;;;;;;;;;;;;;19.92;87.19;101576.58;107164;1264;124987;-87
2023/08/20 03:55:25;;;;;;;;;;;;;;;19.99;87.34;101573.71;107213;1260;65677;-89
2023/08/20 03:57:59;;;;;;;;;;;;;;;20.19;87.62;101577.07;107248;1260;72599;-87
2023/08/20 04:00:30;;;;;;;;;;;;;;;20.49;87.89;101577.37;106983;1261;124872;-88
2023/08/20 04:03:01;;;;;;;;;;;;;;;20.87;87.83;101581.54;107099;1260;61239;-87
2023/08/20 04:05:48;;;;;;;;;;;;;;;21.25;87.31;101582.60;106916;1261;124835;-86
2023/08/20 04:08:22;;;;;;;;;;;;;;;21.74;87.02;101586.03;107138;1261;67042;-87
2023/08/20 04:10:49;;;;;;;;;;;;;;;22.29;86.66;101586.09;106979;1264;125279;-85
2023/08/20 04:13:30;;;;;;;;;;;;;;;22.83;85.54;101580.48;107448;1260;60643;-86
2023/08/20 04:16:01;;;;;;;;;;;;;;;23.36;84.42;101578.71;107526;1260;60369;-86
2023/08/20 04:18:49;;;;;;;;;;;;;;;23.79;83.27;101575.73;107070;1260;125363;-85
2023/08/20 04:21:23;;;;;;;;;;;;;;;24.30;82.53;101578.23;107245;1259;66081;-86
2023/08/20 04:23:51;;;;;;;;;;;;;;;24.86;81.86;101575.90;107006;1265;124891;-85
2023/08/20 04:26:32;;;;;;;;;;;;;;;25.36;80.67;101578.41;107201;1261;61327;-86
2023/08/20 04:29:20;;;;;;;;;;;;;;;25.82;79.31;101577.85;107141;1260;125143;-85
2023/08/20 04:32:21;;;;;;;;;;;;;;;26.27;77.90;101576.49;107175;1261;74578;-90
2023/08/20 04:34:51;;;;;;;;;;;;;;;26.74;76.80;101577.36;107330;1260;125037;-85
2023/08/20 04:37:19;;;;;;;;;;;;;;;27.27;75.98;101575.79;107480;1261;73265;-86
2023/08/20 04:43:02;;;;;;;;;;;;;;;28.24;73.67;101576.35;107510;1259;124913;-93
2023/08/20 04:48:39;;;;;;;;;;;;;;;29.63;71.61;101581.17;107241;1259;124527;-93
2023/08/20 04:51:14;;;;;;;;;;;;;;;30.20;70.10;101582.02;107425;1259;64120;-85
2023/08/20 04:54:02;;;;;;;;;;;;;;;30.60;68.71;101582.77;107064;1266;124307;-84
2023/08/20 04:56:43;;;;;;;;;;;;;;;30.99;67.33;101584.98;107514;1259;61280;-84
2023/08/20 04:59:11;;;;;;;;;;;;;;;31.37;66.37;101584.45;107240;1259;124553;-86
2023/08/20 05:15:06;;;;;;;;;;;;;;;33.61;60.80;101595.63;108069;1260;65776;-85
2023/08/20 05:20:55;;;;;;;;;;;;;;;34.47;58.44;101601.59;107807;1256;78461;-90
2023/08/20 05:23:22;;;;;;;;;;;;;;;34.72;57.31;101600.24;107590;1262;126245;-90
2023/08/20 05:25:49;;;;;;;;;;;;;;;34.56;56.17;101604.29;108295;1264;59337;-91
2023/08/20 05:28:16;;;;;;;;;;;;;;;34.02;55.35;101605.57;108647;1263;66103;-90
2023/08/20 05:41:15;;;;;;;;;;;;;;;30.58;56.53;101608.60;108024;1261;123937;-92
2023/08/20 05:43:49;;;;;;;;;;;;;;;30.08;57.00;101609.17;107668;1261;64474;-91
2023/08/20 05:49:26;;;;;;;;;;;;;;;29.26;57.96;101612.66;107955;1261;81913;-88
2023/08/20 05:51:54;;;;;;;;;;;;;;;28.93;58.31;101613.55;108030;1266;60045;-90
2023/08/20 05:54:20;;;;;;;;;;;;;;;28.68;58.85;101610.52;107943;1259;125283;-89
2023/08/20 05:56:47;;;;;;;;;;;;;;;28.58;59.28;101609.30;108021;1260;66151;-88
2023/08/20 05:59:14;;;;;;;;;;;;;;;28.55;59.50;101616.42;107858;1261;125602;-88
2023/08/20 06:01:41;;;;;;;;;;;;;;;28.51;59.58;101617.27;108091;1263;64432;-90
2023/08/20 06:04:09;;;;;;;;;;;;;;;28.53;59.87;101619.56;108606;1261;59196;-88
2023/08/20 06:06:36;;;;;;;;;;;;;;;28.60;59.83;101622.36;108604;1260;124826;-91
2023/08/20 06:09:03;;;;;;;;;;;;;;;28.67;59.87;101622.84;108467;1264;64772;-89
2023/08/20 06:11:30;;;;;;;;;;;;;;;28.76;59.87;101622.70;108397;1263;126571;-89
2023/08/20 06:13:57;;;;;;;;;;;;;;;28.78;59.76;101626.96;108703;1261;64186;-89
2023/08/20 06:16:25;;;;;;;;;;;;;;;28.71;59.67;101623.97;108621;1259;59489;-89
2023/08/20 06:18:52;;;;;;;;;;;;;;;28.64;59.67;101623.33;108482;1259;123956;-89
2023/08/20 06:21:19;;;;;;;;;;;;;;;28.58;59.85;101629.34;108604;1260;64440;-88
2023/08/20 06:23:46;;;;;;;;;;;;;;;28.53;59.88;101626.42;108542;1265;123735;-88
2023/08/20 06:26:14;;;;;;;;;;;;;;;28.47;59.99;101628.08;108613;1259;62875;-88
2023/08/20 06:28:41;;;;;;;;;;;;;;;28.45;60.17;101630.13;108703;1259;59535;-89
2023/08/20 06:31:09;;;;;;;;;;;;;;;28.46;60.27;101632.42;108632;1259;125554;-89
2023/08/20 06:33:36;;;;;;;;;;;;;;;28.44;60.19;101630.31;108619;1260;64838;-89
2023/08/20 06:36:04;;;;;;;;;;;;;;;28.42;60.25;101627.86;108552;1264;126481;-88
2023/08/20 06:38:31;;;;;;;;;;;;;;;28.40;60.15;101629.39;108680;1259;62596;-89
2023/08/20 06:40:59;;;;;;;;;;;;;;;28.37;60.41;101627.15;108636;1261;125107;-89
2023/08/20 06:43:26;;;;;;;;;;;;;;;28.37;60.38;101623.72;107948;1259;61690;-88
2023/08/20 06:45:54;;;;;;;;;;;;;;;28.33;60.48;101624.60;107836;1260;67744;-88
2023/08/20 06:48:23;;;;;;;;;;;;;;;28.30;60.57;101623.77;108755;1261;124369;-88
2023/08/20 06:50:50;;;;;;;;;;;;;;;28.21;60.51;101619.95;108919;1259;62771;-89
2023/08/20 06:53:26;;;;;;;;;;;;;;;28.08;60.68;101618.59;108956;1259;123745;-89
2023/08/20 06:56:08;;;;;;;;;;;;;;;27.98;60.78;101622.39;108934;1260;58767;-88
2023/08/20 06:58:36;;;;;;;;;;;;;;;27.94;61.23;101623.23;107288;1261;73372;-89
2023/08/20 07:01:10;;;;;;;;;;;;;;;27.97;61.35;101618.98;107321;1260;124121;-89
2023/08/20 07:03:39;;;;;;;;;;;;;;;27.90;61.01;101619.02;107603;1264;73407;-88
2023/08/20 07:06:09;;;;;;;;;;;;;;;27.83;61.18;101621.56;107536;1260;124322;-90
2023/08/20 07:08:40;;;;;;;;;;;;;;;27.88;61.54;101614.73;107758;1259;61321;-90
2023/08/20 07:11:10;;;;;;;;;;;;;;;27.97;61.51;101608.69;108108;1259;124318;-89
2023/08/20 07:13:37;;;;;;;;;;;;;;;28.04;61.63;101611.52;107727;1260;61347;-88
2023/08/20 07:16:05;;;;;;;;;;;;;;;28.10;61.64;101612.39;107764;1261;63803;-88
2023/08/20 07:18:33;;;;;;;;;;;;;;;28.11;61.42;101606.95;107684;1260;124727;-88
2023/08/20 07:21:00;;;;;;;;;;;;;;;28.08;61.47;101606.88;107603;1260;60339;-86
2023/08/20 07:23:36;;;;;;;;;;;;;;;28.12;61.74;101607.09;107475;1260;124515;-87
2023/08/20 07:28:57;;;;;;;;;;;;;;;28.11;61.42;101603.35;90203;1264;63930;-84
2023/08/20 07:31:24;;;;;;;;;;;;;;;28.15;61.81;101604.10;106662;1264;61398;-84
2023/08/20 07:33:51;;;;;;;;;;;;;;;28.22;61.64;101605.65;106831;1263;59547;-80
2023/08/20 07:36:18;;;;;;;;;;;;;;;28.21;61.59;101605.88;106689;1263;66374;-80
2023/08/20 07:38:45;;;;;;;;;;;;;;;28.24;61.65;101607.95;106646;1263;59367;-80
2023/08/20 07:41:11;;;;;;;;;;;;;;;28.30;61.81;101603.74;106574;1263;63901;-78
2023/08/20 07:43:38;;;;;;;;;;;;;;;28.41;61.69;101605.37;106406;1259;61245;-79
2023/08/20 07:46:05;;;;;;;;;;;;;;;28.50;61.67;101612.24;106546;1263;61285;-79
2023/08/20 07:48:31;;;;;;;;;;;;;;;28.59;61.63;101611.06;106574;1261;66028;-80
2023/08/20 07:50:58;;;;;;;;;;;;;;;28.69;61.36;101607.45;106670;1260;59650;-78
2023/08/20 07:53:24;;;;;;;;;;;;;;;28.71;61.20;101604.65;106450;1264;59222;-81
2023/08/20 07:55:51;;;;;;;;;;;;;;;28.77;61.18;101610.22;106572;1259;59695;-82
2023/08/20 07:58:20;;;;;;;;;;;;;;;28.90;61.46;101612.42;106713;1263;61218;-84
2023/08/20 08:00:47;;;;;;;;;;;;;;;29.04;61.26;101616.77;106600;1258;64634;-82
2023/08/20 08:03:14;;;;;;;;;;;;;;;29.11;61.05;101619.59;106738;1263;61478;-82
2023/08/20 08:05:42;;;;;;;;;;;;;;;29.19;60.93;101617.10;106698;1263;63906;-81
2023/08/20 08:08:09;;;;;;;;;;;;;;;29.27;60.68;101617.17;106826;1263;61364;-81
2023/08/20 08:10:35;;;;;;;;;;;;;;;29.34;60.44;101618.71;106810;1260;61262;-82
2023/08/20 08:13:02;;;;;;;;;;;;;;;29.41;60.38;101614.81;106614;1260;65871;-82
2023/08/20 08:15:28;;;;;;;;;;;;;;;29.46;60.31;101616.05;106641;1260;59285;-81
2023/08/20 08:17:55;;;;;;;;;;;;;;;29.52;60.30;101618.14;106593;1260;62455;-83
2023/08/20 08:20:22;;;;;;;;;;;;;;;29.58;60.05;101617.89;106626;1260;59201;-81
2023/08/20 08:22:48;;;;;;;;;;;;;;;29.64;59.92;101615.13;106496;1260;61360;-82
2023/08/20 08:25:15;;;;;;;;;;;;;;;29.70;59.74;101612.52;106678;1260;61264;-82
2023/08/20 08:27:41;;;;;;;;;;;;;;;29.74;59.76;101614.02;106587;1260;61257;-83
2023/08/20 08:30:08;;;;;;;;;;;;;;;29.78;59.84;101615.86;106592;1264;61315;-82
2023/08/20 08:32:34;;;;;;;;;;;;;;;29.80;59.63;101613.40;106673;1262;61305;-82
2023/08/20 08:35:01;;;;;;;;;;;;;;;29.80;59.51;101613.96;106671;1260;61986;-81
2023/08/20 08:37:27;;;;;;;;;;;;;;;29.74;59.33;101609.13;106616;1261;67165;-82
2023/08/20 08:39:54;;;;;;;;;;;;;;;29.68;59.24;101603.59;106698;1259;61344;-82
2023/08/20 08:42:21;;;;;;;;;;;;;;;29.65;59.26;101601.89;106875;1260;61206;-81
2023/08/20 08:44:48;;;;;;;;;;;;;;;29.64;59.18;101601.02;106666;1264;61415;-81
2023/08/20 08:47:14;;;;;;;;;;;;;;;29.59;59.06;101601.77;106802;1260;61244;-82
2023/08/20 08:49:41;;;;;;;;;;;;;;;29.55;59.08;101600.67;106680;1260;61167;-83
2023/08/20 08:52:08;;;;;;;;;;;;;;;29.53;58.97;101602.91;106832;1260;59341;-83
2023/08/20 08:54:34;;;;;;;;;;;;;;;29.42;58.85;101599.38;106699;1261;64096;-82
2023/08/20 08:57:38;;;;;;;;;;;;;;;29.33;58.76;101602.49;108297;1259;81000;-82
2023/08/20 09:00:05;;;;;;;;;;;;;;;29.31;58.81;101603.27;108815;1261;58999;-83
2023/08/20 09:02:32;;;;;;;;;;;;;;;29.40;58.87;101608.34;108690;1263;79210;-86
2023/08/20 09:04:59;;;;;;;;;;;;;;;29.44;58.59;101605.08;108790;1259;59042;-85
2023/08/20 09:07:25;;;;;;;;;;;;;;;29.47;58.73;101606.59;108761;1260;64162;-85
2023/08/20 09:09:52;;;;;;;;;;;;;;;29.52;58.64;101609.48;108787;1259;59076;-83
2023/08/20 09:12:30;;;;;;;;;;;;;;;29.53;58.63;101612.48;108716;1260;58960;-90
2023/08/20 09:15:06;;;;;;;;;;;;;;;29.55;58.55;101617.47;108686;1260;64825;-86
2023/08/20 09:17:33;;;;;;;;;;;;;;;29.56;58.10;101618.71;108654;1259;59448;-87
2023/08/20 09:20:00;;;;;;;;;;;;;;;29.55;57.94;101617.88;108695;1259;64141;-87
2023/08/20 09:22:33;;;;;;;;;;;;;;;29.60;57.94;101618.56;108773;1259;59030;-87
2023/08/20 09:25:02;;;;;;;;;;;;;;;29.63;57.96;101617.54;108667;1259;61053;-86
2023/08/20 09:27:31;;;;;;;;;;;;;;;29.73;57.85;101622.73;108690;1259;67090;-86
2023/08/20 09:30:12;;;;;;;;;;;;;;;29.91;57.78;101622.16;108715;1259;60378;-87
2023/08/20 09:32:39;;;;;;;;;;;;;;;30.12;57.63;101626.70;108567;1261;64629;-89
2023/08/20 09:35:08;;;;;;;;;;;;;;;30.34;57.48;101626.33;108690;1261;59295;-87
2023/08/20 09:37:35;;;;;;;;;;;;;;;30.52;57.17;101624.08;108634;1259;59055;-87
2023/08/20 09:40:02;;;;;;;;;;;;;;;30.69;56.88;101622.22;108745;1259;66016;-87
2023/08/20 09:42:32;;;;;;;;;;;;;;;30.75;56.29;101625.05;108628;1264;59131;-87
2023/08/20 09:44:59;;;;;;;;;;;;;;;30.79;56.18;101624.85;108815;1259;62517;-88
2023/08/20 09:47:29;;;;;;;;;;;;;;;30.97;56.26;101623.88;108649;1259;60325;-87
2023/08/20 09:49:56;;;;;;;;;;;;;;;31.17;56.04;101628.73;108691;1259;59382;-87
2023/08/20 09:52:29;;;;;;;;;;;;;;;31.36;55.76;101626.20;108737;1261;64467;-90
2023/08/20 09:54:59;;;;;;;;;;;;;;;31.52;55.29;101626.91;108793;1263;59375;-88
2023/08/20 09:57:28;;;;;;;;;;;;;;;31.68;54.93;101628.45;108730;1260;62426;-89
2023/08/20 09:59:55;;;;;;;;;;;;;;;31.91;54.93;101628.40;108628;1260;58936;-87
2023/08/20 10:02:22;;;;;;;;;;;;;;;32.18;54.53;101623.61;108597;1260;59845;-88
2023/08/20 10:04:51;;;;;;;;;;;;;;;32.29;53.92;101623.55;108727;1260;66705;-87
2023/08/20 10:07:17;;;;;;;;;;;;;;;32.32;53.36;101625.96;108823;1262;59271;-87
2023/08/20 10:09:45;;;;;;;;;;;;;;;32.25;52.99;101624.14;108767;1259;62815;-86
2023/08/20 10:12:13;;;;;;;;;;;;;;;32.22;52.82;101624.67;108789;1260;59352;-86
2023/08/20 10:14:39;;;;;;;;;;;;;;;32.14;52.82;101621.10;108803;1260;58917;-86
2023/08/20 10:17:07;;;;;;;;;;;;;;;32.08;52.59;101619.95;108661;1260;66199;-87
2023/08/20 10:19:38;;;;;;;;;;;;;;;31.97;52.54;101617.05;108818;1260;59025;-86
2023/08/20 10:22:05;;;;;;;;;;;;;;;31.99;52.84;101613.28;108763;1260;63965;-86
2023/08/20 10:24:41;;;;;;;;;;;;;;;32.08;52.53;101612.33;108735;1260;62636;-87
2023/08/20 10:27:08;;;;;;;;;;;;;;;32.06;52.30;101606.63;108738;1261;58997;-87
2023/08/20 10:29:38;;;;;;;;;;;;;;;32.01;52.26;101603.95;108696;1262;67583;-87
2023/08/20 10:32:08;;;;;;;;;;;;;;;32.00;52.14;101604.54;108833;1259;59317;-86
2023/08/20 10:34:37;;;;;;;;;;;;;;;31.92;52.04;101605.84;108771;1259;62486;-86
2023/08/20 10:37:10;;;;;;;;;;;;;;;31.88;52.12;101602.60;108809;1260;58975;-87
2023/08/20 10:39:42;;;;;;;;;;;;;;;31.89;52.17;101598.04;108814;1259;59127;-90
2023/08/20 10:42:10;;;;;;;;;;;;;;;31.86;51.88;101599.23;108787;1259;64501;-90
2023/08/20 10:44:58;;;;;;;;;;;;;;;31.82;51.94;101602.54;108695;1260;59179;-92
2023/08/20 10:47:54;;;;;;;;;;;;;;;31.88;51.87;101600.41;108836;1260;63880;-95
2023/08/20 10:50:23;;;;;;;;;;;;;;;31.91;51.67;101600.80;108847;1261;59185;-93
2023/08/20 10:56:07;;;;;;;;;;;;;;;32.00;51.59;101592.40;108693;1258;80297;-80
2023/08/20 10:58:33;;;;;;;;;;;;;;;32.05;51.56;101593.58;108827;1260;58975;-80
2023/08/20 11:01:16;;;;;;;;;;;;;;;32.13;51.62;101597.34;108852;1260;62793;-80
2023/08/20 11:03:48;;;;;;;;;;;;;;;32.18;51.78;101601.83;108654;1263;59133;-81
2023/08/20 11:06:20;;;;;;;;;;;;;;;32.15;51.80;101605.07;108711;1260;59014;-81
2023/08/20 11:09:07;;;;;;;;;;;;;;;32.12;52.05;101603.77;108788;1260;65852;-81
2023/08/20 11:11:51;;;;;;;;;;;;;;;32.02;51.83;101598.09;108894;1259;59005;-81
2023/08/20 11:14:18;;;;;;;;;;;;;;;31.91;51.82;101598.64;108804;1260;65122;-81
2023/08/20 11:16:44;;;;;;;;;;;;;;;31.80;51.69;101610.43;108850;1260;59016;-81
2023/08/20 11:19:11;;;;;;;;;;;;;;;31.60;51.75;101611.11;108907;1259;59290;-81
2023/08/20 11:21:38;;;;;;;;;;;;;;;31.46;51.89;101610.66;108768;1260;64830;-81
2023/08/20 11:24:04;;;;;;;;;;;;;;;31.25;52.41;101607.85;108802;1261;59003;-83
2023/08/20 11:26:31;;;;;;;;;;;;;;;31.00;52.96;101610.33;108803;1259;64129;-82
2023/08/20 11:29:00;;;;;;;;;;;;;;;30.67;53.16;101618.54;108899;1260;58976;-82
2023/08/20 11:31:26;;;;;;;;;;;;;;;30.17;53.82;101621.80;108852;1259;58906;-83
2023/08/20 11:33:53;;;;;;;;;;;;;;;29.59;55.08;101620.93;108899;1260;65992;-82
2023/08/20 11:36:22;;;;;;;;;;;;;;;29.00;56.10;101628.48;108904;1260;59558;-83
2023/08/20 11:38:50;;;;;;;;;;;;;;;28.41;57.18;101629.36;108777;1259;64188;-82
2023/08/20 11:41:25;;;;;;;;;;;;;;;27.97;57.95;101633.58;108838;1260;59043;-82
2023/08/20 11:43:55;;;;;;;;;;;;;;;27.45;57.50;101637.23;108720;1260;154150;-81
2023/08/20 11:46:22;;;;;;;;;;;;;;;27.16;57.50;101652.16;108823;1260;73724;-82
2023/08/20 11:48:58;;;;;;;;;;;;;;;26.86;58.17;101655.70;108844;1260;66062;-82
2023/08/20 11:51:24;;;;;;;;;;;;;;;26.68;58.67;101658.55;108859;1260;72827;-83
2023/08/20 11:53:51;;;;;;;;;;;;;;;26.43;58.58;101642.11;108787;1260;59049;-82
2023/08/20 11:56:18;;;;;;;;;;;;;;;26.08;58.43;101647.52;108889;1259;60054;-83
2023/08/20 11:58:50;;;;;;;;;;;;;;;25.73;59.25;101657.88;108844;1260;74776;-83
2023/08/20 12:01:17;;;;;;;;;;;;;;;25.60;59.86;101673.09;108786;1260;66383;-82
2023/08/20 12:03:44;;;;;;;;;;;;;;;25.54;60.63;101687.98;108787;1260;73066;-82
2023/08/20 12:06:18;;;;;;;;;;;;;;;25.49;60.69;101694.91;108846;1260;59029;-82
2023/08/20 12:08:46;;;;;;;;;;;;;;;25.31;61.06;101689.36;108937;1260;59039;-82
2023/08/20 12:11:13;;;;;;;;;;;;;;;25.04;61.96;101688.65;108929;1259;73484;-82
2023/08/20 12:13:40;;;;;;;;;;;;;;;24.71;61.98;101681.40;108908;1259;66282;-82
2023/08/20 12:16:07;;;;;;;;;;;;;;;24.64;63.12;101675.78;108894;1260;71490;-82
2023/08/20 12:18:34;;;;;;;;;;;;;;;24.70;63.98;101658.63;108784;1259;59104;-81
2023/08/20 12:21:04;;;;;;;;;;;;;;;24.82;64.48;101634.48;108821;1260;60253;-82
2023/08/20 12:23:31;;;;;;;;;;;;;;;24.86;64.04;101615.02;108808;1259;74983;-82
2023/08/20 12:26:01;;;;;;;;;;;;;;;24.81;63.56;101603.48;108881;1261;64696;-82
2023/08/20 12:28:31;;;;;;;;;;;;;;;24.89;63.70;101606.89;108874;1259;71071;-81
2023/08/20 12:30:58;;;;;;;;;;;;;;;25.06;64.13;101610.13;108747;1259;59035;-82
2023/08/20 12:33:24;;;;;;;;;;;;;;;25.17;63.76;101612.57;108759;1260;59422;-81
2023/08/20 12:35:54;;;;;;;;;;;;;;;25.28;64.10;101608.23;108852;1259;72972;-82
2023/08/20 12:38:21;;;;;;;;;;;;;;;25.42;64.17;101612.95;108846;1260;63891;-82
2023/08/20 12:40:52;;;;;;;;;;;;;;;25.51;64.20;101613.81;108747;1261;71418;-81
2023/08/20 12:43:20;;;;;;;;;;;;;;;25.59;64.74;101619.20;108851;1260;59623;-81
2023/08/20 12:46:08;;;;;;;;;;;;;;;25.79;65.13;101615.48;108829;1260;58925;-81
2023/08/20 12:48:48;;;;;;;;;;;;;;;26.01;65.46;101610.09;108848;1259;73859;-82
2023/08/20 12:51:21;;;;;;;;;;;;;;;26.19;65.31;101612.34;108834;1260;66247;-82
2023/08/20 12:53:50;;;;;;;;;;;;;;;26.31;65.35;101608.95;108847;1260;72547;-81
2023/08/20 12:56:17;;;;;;;;;;;;;;;26.39;65.16;101610.01;108702;1260;59749;-81
2023/08/20 12:58:50;;;;;;;;;;;;;;;26.47;65.26;101613.58;108831;1260;59957;-81
2023/08/20 13:01:19;;;;;;;;;;;;;;;26.52;65.75;101610.73;108730;1262;74620;-81
2023/08/20 13:03:45;;;;;;;;;;;;;;;26.60;65.87;101610.16;108840;1260;66441;-83
2023/08/20 13:06:16;;;;;;;;;;;;;;;26.64;65.96;101610.94;108745;1260;72381;-83
2023/08/20 13:08:46;;;;;;;;;;;;;;;26.71;66.17;101607.88;108679;1262;59309;-81
2023/08/20 13:11:13;;;;;;;;;;;;;;;26.78;66.29;101611.27;108823;1261;60534;-80
2023/08/20 13:13:45;;;;;;;;;;;;;;;26.81;66.14;101611.57;108832;1261;73855;-81
2023/08/20 13:16:15;;;;;;;;;;;;;;;26.89;66.65;101612.05;108735;1262;66443;-81
2023/08/20 13:18:47;;;;;;;;;;;;;;;26.99;66.85;101609.98;108829;1260;73182;-81
2023/08/20 13:21:14;;;;;;;;;;;;;;;27.02;66.76;101609.31;108731;1260;59070;-81
2023/08/20 13:23:44;;;;;;;;;;;;;;;27.01;66.24;101611.51;108668;1262;60424;-82
2023/08/20 13:26:12;;;;;;;;;;;;;;;26.99;66.41;101612.66;108781;1260;73483;-82
2023/08/20 13:28:57;;;;;;;;;;;;;;;27.02;66.46;101614.02;108845;1260;67324;-82
2023/08/20 13:31:26;;;;;;;;;;;;;;;26.98;66.62;101611.77;108706;1260;71427;-82